Time;durP1;ratioP1;P1;durP2;ratioP2;P2;SDS_P1;SDS_P2;PMS_P1;PMS_P2;Temp;Humidity;BMP_temperature;BMP_pressure;BME280_temperature;BME280_humidity;BME280_pressure;Samples;Min_cycle;Max_cycle;Signal;HPM_P1;HPM_P2
2022/05/12 00:01:33;;;;;;;4.35;4.05;;;;;;;13.92;nan;95516.56;5007698;28;20207;-78
2022/05/12 00:04:00;;;;;;;5.93;5.40;;;;;;;14.27;nan;95517.72;5003148;28;20270;-77
2022/05/12 00:06:27;;;;;;;6.57;5.15;;;;;;;14.18;nan;95512.97;5006319;28;21410;-77
2022/05/12 00:08:54;;;;;;;7.32;6.10;;;;;;;14.20;nan;95495.84;5005558;28;20208;-79
2022/05/12 00:11:21;;;;;;;9.77;7.53;;;;;;;14.12;nan;95513.22;5002706;28;20214;-77
2022/05/12 00:13:48;;;;;;;8.93;7.63;;;;;;;13.77;nan;95506.97;5009947;28;20199;-77
2022/05/12 00:16:16;;;;;;;9.18;6.35;;;;;;;13.75;nan;95518.13;4992886;28;20950;-75
2022/05/12 00:18:43;;;;;;;6.10;5.60;;;;;;;14.01;nan;95520.50;5003298;28;20228;-75
2022/05/12 00:21:10;;;;;;;5.57;5.15;;;;;;;14.09;nan;95518.47;5000589;28;20739;-75
2022/05/12 00:23:36;;;;;;;7.07;6.03;;;;;;;14.19;nan;95524.03;5000773;28;20196;-73
2022/05/12 00:26:03;;;;;;;6.25;5.72;;;;;;;14.18;nan;95512.16;5004823;28;20250;-76
2022/05/12 00:28:30;;;;;;;7.18;6.03;;;;;;;14.27;nan;95522.84;5003288;28;20219;-75
2022/05/12 00:30:58;;;;;;;6.80;5.97;;;;;;;14.35;nan;95526.81;5003669;28;20214;-77
2022/05/12 00:33:29;;;;;;;6.20;5.60;;;;;;;14.41;nan;95512.06;5003391;28;20204;-80
2022/05/12 00:35:57;;;;;;;7.35;6.65;;;;;;;14.37;nan;95507.09;5005450;28;21946;-77
2022/05/12 00:38:24;;;;;;;8.52;7.65;;;;;;;14.35;nan;95508.94;5003778;28;20208;-79
2022/05/12 00:40:51;;;;;;;8.45;7.57;;;;;;;14.35;nan;95514.88;5000402;28;20243;-79
2022/05/12 00:43:38;;;;;;;8.70;6.38;;;;;;;14.19;nan;95518.94;5001753;28;20204;-80
2022/05/12 00:46:06;;;;;;;8.00;7.10;;;;;;;14.26;nan;95500.72;5004365;28;20203;-76
2022/05/12 00:48:34;;;;;;;8.10;5.78;;;;;;;14.35;nan;95514.03;5005172;28;20215;-78
2022/05/12 00:51:02;;;;;;;8.32;5.57;;;;;;;14.22;nan;95504.31;5005336;28;20222;-77
2022/05/12 00:53:30;;;;;;;7.75;6.57;;;;;;;14.23;nan;95520.47;5003151;28;20196;-76
2022/05/12 00:55:59;;;;;;;7.03;6.43;;;;;;;13.88;nan;95514.19;5003581;28;20258;-78
2022/05/12 00:58:28;;;;;;;6.72;6.13;;;;;;;14.03;nan;95512.78;5000901;28;21519;-75
2022/05/12 01:00:55;;;;;;;7.20;5.68;;;;;;;13.93;nan;95517.41;5005913;28;20228;-78
2022/05/12 01:03:26;;;;;;;6.47;5.65;;;;;;;13.33;nan;95518.88;4998748;28;20216;-79
2022/05/12 01:05:54;;;;;;;6.45;5.82;;;;;;;13.09;nan;95506.97;5002202;28;20269;-78
2022/05/12 01:08:23;;;;;;;6.47;5.82;;;;;;;13.50;nan;95526.72;5002987;28;20203;-79
2022/05/12 01:10:55;;;;;;;5.70;5.30;;;;;;;13.65;nan;95525.31;5002270;28;20199;-77
2022/05/12 01:13:22;;;;;;;6.20;5.70;;;;;;;13.27;nan;95524.19;5002523;28;20238;-78
2022/05/12 01:15:54;;;;;;;5.20;4.80;;;;;;;13.48;nan;95531.06;5005274;28;20645;-79
2022/05/12 01:18:22;;;;;;;5.60;5.20;;;;;;;13.39;nan;95530.56;5002716;28;20235;-80
2022/05/12 01:20:51;;;;;;;6.38;5.53;;;;;;;13.14;nan;95521.22;5005106;28;20227;-77
2022/05/12 01:23:30;;;;;;;6.35;5.45;;;;;;;12.95;nan;95521.03;5000605;28;20652;-81
2022/05/12 01:26:00;;;;;;;5.50;5.10;;;;;;;13.18;nan;95516.88;5005159;28;20226;-79
2022/05/12 01:28:28;;;;;;;5.50;4.97;;;;;;;13.47;nan;95524.28;5002934;28;20278;-78
2022/05/12 01:30:55;;;;;;;5.15;4.75;;;;;;;13.10;nan;95511.19;5003743;28;20574;-79
2022/05/12 01:33:22;;;;;;;5.47;5.18;;;;;;;12.92;nan;95526.25;5002732;28;20239;-83
2022/05/12 01:35:49;;;;;;;4.88;4.47;;;;;;;12.97;nan;95535.47;5008435;28;20204;-78
2022/05/12 01:38:16;;;;;;;5.65;5.25;;;;;;;12.83;nan;95526.59;5018351;28;20211;-76
2022/05/12 01:40:44;;;;;;;6.32;5.55;;;;;;;12.66;nan;95533.97;5005121;28;20322;-77
2022/05/12 01:43:12;;;;;;;5.43;5.03;;;;;;;12.46;nan;95518.53;5003875;28;20204;-76
2022/05/12 01:45:39;;;;;;;12.02;5.70;;;;;;;12.50;nan;95532.84;5004236;28;20601;-78
2022/05/12 01:48:21;;;;;;;11.60;7.32;;;;;;;12.81;nan;95537.72;5002461;28;20204;-76
2022/05/12 01:50:48;;;;;;;8.35;7.55;;;;;;;12.84;nan;95533.34;5003582;28;20207;-77
2022/05/12 01:53:17;;;;;;;11.75;9.20;;;;;;;12.73;nan;95540.53;5003300;28;20196;-77
2022/05/12 01:55:47;;;;;;;19.60;11.25;;;;;;;12.60;nan;95544.41;5004707;28;20223;-77
2022/05/12 01:58:14;;;;;;;14.02;10.18;;;;;;;12.60;nan;95539.31;5004260;28;20220;-77
2022/05/12 02:00:41;;;;;;;13.88;9.23;;;;;;;12.56;nan;95535.19;5004075;28;20236;-77
2022/05/12 02:03:09;;;;;;;9.48;8.05;;;;;;;12.86;nan;95546.91;5003561;28;20207;-77
2022/05/12 02:05:38;;;;;;;8.63;7.55;;;;;;;13.00;nan;95531.09;5005844;28;20200;-75
2022/05/12 02:08:07;;;;;;;9.02;6.40;;;;;;;13.10;nan;95546.91;5006138;28;20211;-76
2022/05/12 02:10:37;;;;;;;10.20;6.18;;;;;;;12.85;nan;95527.38;5005850;28;20199;-76
2022/05/12 02:13:07;;;;;;;9.52;7.63;;;;;;;13.00;nan;95537.91;5003267;28;20285;-77
2022/05/12 02:15:34;;;;;;;9.80;7.63;;;;;;;12.99;nan;95543.91;5003924;28;20318;-77
2022/05/12 02:18:01;;;;;;;7.55;6.85;;;;;;;13.12;nan;95547.66;5003585;28;20305;-77
2022/05/12 02:20:28;;;;;;;8.85;6.70;;;;;;;13.01;nan;95548.06;5003524;28;20231;-79
2022/05/12 02:22:55;;;;;;;9.00;6.93;;;;;;;13.02;nan;95551.44;5004167;28;21387;-77
2022/05/12 02:25:22;;;;;;;8.35;7.45;;;;;;;13.07;nan;95560.63;5003780;28;20207;-77
2022/05/12 02:27:50;;;;;;;11.70;6.72;;;;;;;12.85;nan;95522.28;5002197;28;20223;-78
2022/05/12 02:30:20;;;;;;;9.52;6.57;;;;;;;12.97;nan;95563.53;5001815;28;20231;-77
2022/05/12 02:32:47;;;;;;;8.00;7.18;;;;;;;12.76;nan;95560.84;5001412;28;20606;-78
2022/05/12 02:35:15;;;;;;;12.18;6.35;;;;;;;12.53;nan;95548.03;5001616;28;20203;-77
2022/05/12 02:37:55;;;;;;;8.30;6.35;;;;;;;12.76;nan;95563.38;5002911;28;20207;-78
2022/05/12 02:40:25;;;;;;;9.85;7.15;;;;;;;12.92;nan;95551.75;5002470;28;20290;-78
2022/05/12 02:42:52;;;;;;;10.00;6.40;;;;;;;13.01;nan;95540.41;5001379;28;20584;-77
2022/05/12 02:45:21;;;;;;;8.00;6.88;;;;;;;13.10;nan;95563.06;5005508;28;20209;-78
2022/05/12 02:47:47;;;;;;;11.93;7.10;;;;;;;13.17;nan;95561.13;5005667;28;20208;-77
2022/05/12 02:50:17;;;;;;;7.32;6.63;;;;;;;13.17;nan;95561.13;5002036;28;20215;-76
2022/05/12 02:52:44;;;;;;;7.00;6.22;;;;;;;12.85;nan;95559.69;5000576;28;20199;-77
2022/05/12 02:55:11;;;;;;;8.05;6.25;;;;;;;12.87;nan;95563.84;5003268;28;20200;-77
2022/05/12 02:57:40;;;;;;;7.05;6.35;;;;;;;12.98;nan;95562.66;5005616;28;20242;-77
2022/05/12 03:00:12;;;;;;;6.70;6.18;;;;;;;13.12;nan;95562.97;5005917;28;20718;-77
2022/05/12 03:02:40;;;;;;;6.97;6.25;;;;;;;13.15;nan;95570.53;5004794;28;20207;-77
2022/05/12 03:05:08;;;;;;;6.68;6.07;;;;;;;13.17;nan;95573.91;5006685;28;20897;-77
2022/05/12 03:07:35;;;;;;;6.82;6.20;;;;;;;13.04;nan;95550.50;5004745;28;20203;-76
2022/05/12 03:10:02;;;;;;;6.43;5.90;;;;;;;13.19;nan;95572.13;5006164;28;20207;-77
2022/05/12 03:12:30;;;;;;;23.92;17.17;;;;;;;13.22;nan;95575.41;5004345;28;20207;-77
2022/05/12 03:14:57;;;;;;;19.60;12.70;;;;;;;13.05;nan;95561.56;5005753;28;20302;-78
2022/05/12 03:17:24;;;;;;;10.85;8.90;;;;;;;13.01;nan;95572.75;5007916;28;20239;-76
2022/05/12 03:19:52;;;;;;;11.50;8.90;;;;;;;13.08;nan;95582.69;5006594;28;20212;-77
2022/05/12 03:22:19;;;;;;;36.72;23.83;;;;;;;13.14;nan;95576.50;5009794;28;20589;-76
2022/05/12 03:24:45;;;;;;;16.55;11.02;;;;;;;13.22;nan;95588.16;5010422;28;20289;-77
2022/05/12 03:27:13;;;;;;;12.70;8.02;;;;;;;13.22;nan;95587.34;5010514;28;20265;-77
2022/05/12 03:29:40;;;;;;;7.63;6.18;;;;;;;13.13;nan;95590.16;5008004;28;20210;-77
2022/05/12 03:32:10;;;;;;;11.90;6.75;;;;;;;13.23;nan;95596.66;5007747;28;20216;-78
2022/05/12 03:34:37;;;;;;;7.93;7.13;;;;;;;13.28;nan;95595.59;5007134;28;20201;-77
2022/05/12 03:37:06;;;;;;;7.28;6.00;;;;;;;13.20;nan;95595.03;5010911;28;20209;-78
2022/05/12 03:39:33;;;;;;;7.47;6.13;;;;;;;13.54;nan;95602.34;5010466;28;20357;-78
2022/05/12 03:41:59;;;;;;;10.90;9.90;;;;;;;13.69;nan;95600.94;5009233;28;20725;-78
2022/05/12 03:47:13;;;;;;;16.02;11.40;;;;;;;13.57;nan;95601.38;5007596;28;20265;-77
2022/05/12 03:49:40;;;;;;;11.77;7.68;;;;;;;13.49;nan;95599.09;5008322;28;20262;-77
2022/05/12 03:52:09;;;;;;;12.52;6.65;;;;;;;13.91;nan;95613.72;5010457;28;20307;-79
2022/05/12 03:54:36;;;;;;;11.38;7.13;;;;;;;14.21;nan;95604.88;5013666;28;20320;-78
2022/05/12 03:57:04;;;;;;;6.72;5.95;;;;;;;14.66;nan;95606.53;5009781;28;20289;-78
2022/05/12 03:59:31;;;;;;;8.15;5.80;;;;;;;14.81;nan;95589.72;5006726;28;20706;-78
2022/05/12 04:01:58;;;;;;;6.03;5.60;;;;;;;15.19;nan;95613.69;5008139;28;20790;-78
2022/05/12 04:04:24;;;;;;;6.03;5.50;;;;;;;15.09;nan;95620.13;5008607;28;20756;-78
2022/05/12 04:06:51;;;;;;;6.25;5.03;;;;;;;15.00;nan;95623.06;5007452;28;20203;-78
2022/05/12 04:09:19;;;;;;;57.90;33.28;;;;;;;14.90;nan;95620.03;5010108;28;20703;-78
2022/05/12 04:11:46;;;;;;;26.33;16.73;;;;;;;14.51;nan;95587.53;5007279;28;20208;-78
2022/05/12 04:14:14;;;;;;;16.00;9.65;;;;;;;14.66;nan;95621.88;5008505;28;20285;-77
2022/05/12 04:16:41;;;;;;;5.93;5.50;;;;;;;14.57;nan;95622.28;5007676;28;20244;-77
2022/05/12 04:19:08;;;;;;;5.88;5.47;;;;;;;14.29;nan;95613.09;5006994;28;20203;-77
2022/05/12 04:21:37;;;;;;;6.20;5.70;;;;;;;14.52;nan;95621.59;5008181;28;20246;-77
2022/05/12 04:24:05;;;;;;;7.38;5.28;;;;;;;15.25;nan;95626.25;5006870;28;20212;-77
2022/05/12 04:26:34;;;;;;;10.68;5.30;;;;;;;15.77;nan;95618.88;5004814;28;20346;-78
2022/05/12 04:29:02;;;;;;;6.90;5.60;;;;;;;15.87;nan;95615.81;5006914;28;20231;-77
2022/05/12 04:31:29;;;;;;;16.92;5.68;;;;;;;15.98;nan;95623.03;5006840;28;20212;-78
2022/05/12 04:36:41;;;;;;;6.15;5.55;;;;;;;16.36;nan;95616.09;5017913;28;20223;-78
2022/05/12 04:39:08;;;;;;;8.90;8.10;;;;;;;16.51;nan;95627.38;5016119;28;20203;-78
2022/05/12 04:41:37;;;;;;;9.43;8.30;;;;;;;16.60;nan;95626.91;5005750;28;20270;-77
2022/05/12 04:44:05;;;;;;;9.20;7.72;;;;;;;16.77;nan;95629.56;5009401;28;20586;-77
2022/05/12 04:46:34;;;;;;;6.93;5.60;;;;;;;17.00;nan;95642.09;5008455;28;21165;-79
2022/05/12 04:49:01;;;;;;;7.35;6.22;;;;;;;16.99;nan;95632.72;5006761;28;20208;-81
2022/05/12 04:51:29;;;;;;;6.95;5.78;;;;;;;17.12;nan;95639.81;5006613;28;20261;-77
2022/05/12 04:53:56;;;;;;;6.13;5.28;;;;;;;17.30;nan;95649.19;5005795;28;20212;-76
2022/05/12 04:56:23;;;;;;;7.18;5.32;;;;;;;17.51;nan;95648.06;5008008;28;20214;-80
2022/05/12 04:58:51;;;;;;;12.18;5.80;;;;;;;17.77;nan;95640.78;5007358;28;20716;-77
2022/05/12 05:01:18;;;;;;;8.38;5.28;;;;;;;18.05;nan;95638.41;5006929;28;20227;-76
2022/05/12 05:03:45;;;;;;;7.22;5.22;;;;;;;18.43;nan;95644.03;5006001;28;20214;-77
2022/05/12 05:06:12;;;;;;;10.05;6.03;;;;;;;18.74;nan;95643.19;5005713;28;20219;-77
2022/05/12 05:08:39;;;;;;;7.35;5.93;;;;;;;19.06;nan;95643.91;5005514;28;20213;-76
2022/05/12 05:11:06;;;;;;;13.70;6.63;;;;;;;19.36;nan;95641.31;5006629;28;20205;-77
2022/05/12 05:13:34;;;;;;;6.85;5.55;;;;;;;20.27;nan;95635.78;5006300;28;20195;-78
2022/05/12 05:16:03;;;;;;;12.85;5.97;;;;;;;21.37;nan;95636.44;5007041;28;20208;-77
2022/05/12 05:18:30;;;;;;;25.50;17.63;;;;;;;22.44;nan;95637.66;5006969;28;20257;-78
2022/05/12 05:20:57;;;;;;;26.67;19.35;;;;;;;24.77;nan;95622.47;5006705;28;21124;-78
2022/05/12 05:23:23;;;;;;;18.73;12.82;;;;;;;26.01;nan;95621.66;5006902;28;20219;-78
2022/05/12 05:25:52;;;;;;;12.52;10.27;;;;;;;26.71;nan;95635.56;5008168;28;20737;-78
2022/05/12 05:28:19;;;;;;;9.55;7.65;;;;;;;28.04;nan;95622.47;5005987;28;20232;-78
2022/05/12 05:30:46;;;;;;;10.77;7.97;;;;;;;28.25;nan;95627.47;5007414;28;20773;-78
2022/05/12 05:33:14;;;;;;;9.30;7.28;;;;;;;29.16;nan;95615.19;5006857;28;20199;-80
2022/05/12 05:35:41;;;;;;;14.70;7.88;;;;;;;29.56;nan;95617.28;5008385;28;20690;-78
2022/05/12 05:38:08;;;;;;;7.68;6.95;;;;;;;30.53;nan;95616.91;5005471;28;20207;-78
2022/05/12 05:40:41;;;;;;;34.70;18.55;;;;;;;29.60;nan;95608.16;5006041;28;20647;-79
2022/05/12 05:43:14;;;;;;;16.30;11.25;;;;;;;30.01;nan;95621.47;5005218;28;20765;-78
2022/05/12 05:45:41;;;;;;;14.02;11.93;;;;;;;30.56;nan;95610.56;5005865;28;20199;-79
2022/05/12 05:48:09;;;;;;;12.93;7.22;;;;;;;30.86;nan;95617.03;5008511;28;20208;-79
2022/05/12 05:53:26;;;;;;;12.65;7.72;;;;;;;30.92;nan;95611.94;5006536;28;20200;-79
2022/05/12 05:55:54;;;;;;;8.73;7.00;;;;;;;31.34;nan;95632.00;5005060;28;20207;-78
2022/05/12 05:58:22;;;;;;;8.15;7.35;;;;;;;30.71;nan;95624.69;5005043;28;20196;-78
2022/05/12 06:00:50;;;;;;;8.30;7.22;;;;;;;30.37;nan;95627.38;5008396;28;20204;-78
2022/05/12 06:03:17;;;;;;;11.93;7.78;;;;;;;31.00;nan;95630.31;5007990;28;20680;-77
2022/05/12 06:05:46;;;;;;;7.07;6.47;;;;;;;30.62;nan;95626.50;5007215;28;20636;-79
2022/05/12 06:08:15;;;;;;;6.80;6.28;;;;;;;30.63;nan;95629.94;5006912;28;20265;-80
2022/05/12 06:10:42;;;;;;;8.70;7.10;;;;;;;30.66;nan;95612.09;5008215;28;20204;-79
2022/05/12 06:13:09;;;;;;;16.45;14.85;;;;;;;30.33;nan;95624.25;5005145;28;20253;-80
2022/05/12 06:15:36;;;;;;;7.78;7.07;;;;;;;31.16;nan;95628.72;5005128;28;20722;-80
2022/05/12 06:18:07;;;;;;;8.25;7.15;;;;;;;32.19;nan;95617.34;5008095;28;20231;-79
2022/05/12 06:20:34;;;;;;;9.32;8.32;;;;;;;30.87;nan;95632.59;5005989;28;20659;-79
2022/05/12 06:23:03;;;;;;;26.42;14.55;;;;;;;31.85;nan;95620.28;5005636;28;20260;-80
2022/05/12 06:25:30;;;;;;;11.15;7.07;;;;;;;31.63;nan;95626.22;5004979;28;21404;-80
2022/05/12 06:27:57;;;;;;;6.55;6.05;;;;;;;32.18;nan;95620.16;5005102;28;20629;-80
2022/05/12 06:30:23;;;;;;;7.80;6.00;;;;;;;31.87;nan;95620.94;5005488;28;20510;-79
2022/05/12 06:32:51;;;;;;;7.78;6.10;;;;;;;30.88;nan;95609.81;5006122;28;20219;-80
2022/05/12 06:35:20;;;;;;;6.70;5.25;;;;;;;31.26;nan;95634.63;5005799;28;20211;-80
2022/05/12 06:37:47;;;;;;;9.82;6.57;;;;;;;30.92;nan;95617.19;5004794;28;20603;-81
2022/05/12 06:40:16;;;;;;;9.20;8.20;;;;;;;31.67;nan;95623.13;5004890;28;20599;-81
2022/05/12 06:42:44;;;;;;;7.63;6.63;;;;;;;31.19;nan;95617.88;5005529;28;20614;-81
2022/05/12 06:45:12;;;;;;;6.50;5.82;;;;;;;30.17;nan;95611.09;5005623;28;20264;-80
2022/05/12 06:47:45;;;;;;;8.00;7.22;;;;;;;29.47;nan;95618.19;5003443;28;20958;-82
2022/05/12 06:50:12;;;;;;;7.28;6.72;;;;;;;28.66;nan;95612.25;5006676;28;21119;-81
2022/05/12 06:52:40;;;;;;;9.88;8.88;;;;;;;28.67;nan;95606.88;5002825;28;20208;-81
2022/05/12 06:55:08;;;;;;;6.97;6.30;;;;;;;27.35;nan;95619.38;5005651;28;20671;-81
2022/05/12 06:57:36;;;;;;;7.30;6.72;;;;;;;27.63;nan;95618.50;5004197;28;20205;-80
2022/05/12 07:00:05;;;;;;;9.82;8.82;;;;;;;27.89;nan;95589.13;5004580;28;20688;-79
2022/05/12 07:02:32;;;;;;;8.65;7.60;;;;;;;26.76;nan;95607.28;5004739;28;20817;-81
2022/05/12 07:04:59;;;;;;;15.75;8.32;;;;;;;26.67;nan;95614.16;5004107;28;20200;-79
2022/05/12 07:07:25;;;;;;;14.30;11.68;;;;;;;26.92;nan;95609.38;5002119;28;20295;-79
2022/05/12 07:09:54;;;;;;;8.63;7.47;;;;;;;27.19;nan;95619.13;5006256;28;20688;-80
2022/05/12 07:12:23;;;;;;;7.95;7.13;;;;;;;27.17;nan;95619.25;5004382;28;20211;-80
2022/05/12 07:14:52;;;;;;;8.93;6.22;;;;;;;27.14;nan;95605.66;5005833;28;20216;-82
2022/05/12 07:17:20;;;;;;;10.02;5.75;;;;;;;26.33;nan;95620.69;5006082;28;20243;-81
2022/05/12 07:19:48;;;;;;;7.93;6.53;;;;;;;25.97;nan;95606.44;5005483;28;20319;-80
2022/05/12 07:27:43;;;;;;;10.18;7.68;;;;;;;25.41;nan;95606.84;5004123;28;20285;-80
2022/05/12 07:30:12;;;;;;;8.73;6.80;;;;;;;25.07;nan;95599.22;5007805;28;20672;-79
2022/05/12 07:32:39;;;;;;;7.78;7.07;;;;;;;24.89;nan;95594.69;5004333;28;20556;-80
2022/05/12 07:35:07;;;;;;;11.82;7.38;;;;;;;25.20;nan;95591.25;5006449;28;20232;-81
2022/05/12 07:37:34;;;;;;;7.35;6.15;;;;;;;25.37;nan;95590.66;5022179;28;20318;-80
2022/05/12 07:40:02;;;;;;;9.60;7.22;;;;;;;25.54;nan;95598.81;5016714;28;20204;-81
2022/05/12 07:42:29;;;;;;;9.75;7.75;;;;;;;25.94;nan;95594.50;5005504;28;20236;-81
2022/05/12 07:44:56;;;;;;;15.82;9.20;;;;;;;26.20;nan;95573.19;5006671;28;20211;-80
2022/05/12 07:47:26;;;;;;;18.73;14.75;;;;;;;26.35;nan;95597.91;5003671;28;20639;-80
2022/05/12 07:49:53;;;;;;;9.35;8.07;;;;;;;25.99;nan;95592.31;5004965;28;20267;-80
2022/05/12 07:52:20;;;;;;;11.32;7.35;;;;;;;25.72;nan;95595.53;5002429;28;20227;-81
2022/05/12 07:54:47;;;;;;;9.23;7.40;;;;;;;25.25;nan;95593.44;5005110;28;20211;-79
2022/05/12 07:57:13;;;;;;;7.68;6.97;;;;;;;25.12;nan;95582.41;5005190;28;20193;-79
2022/05/12 07:59:40;;;;;;;15.65;12.73;;;;;;;25.59;nan;95583.63;5003401;28;20200;-80
2022/05/12 08:02:07;;;;;;;9.40;7.22;;;;;;;25.84;nan;95585.81;5006914;28;20223;-80
2022/05/12 08:04:39;;;;;;;11.98;7.22;;;;;;;25.78;nan;95588.94;5006417;28;20208;-79
2022/05/12 08:07:06;;;;;;;11.85;7.00;;;;;;;25.95;nan;95592.72;5008018;28;20228;-80
2022/05/12 08:09:32;;;;;;;11.38;6.90;;;;;;;26.23;nan;95594.56;5009701;28;20209;-81
2022/05/12 08:11:59;;;;;;;8.88;5.68;;;;;;;26.37;nan;95586.41;5008232;28;20636;-80
2022/05/12 08:14:26;;;;;;;11.23;6.30;;;;;;;26.40;nan;95585.31;5009701;28;20215;-81
2022/05/12 08:16:53;;;;;;;6.30;5.72;;;;;;;26.47;nan;95581.22;5004936;28;20257;-81
2022/05/12 08:19:20;;;;;;;7.07;6.47;;;;;;;26.37;nan;95586.41;5008008;28;20627;-79
2022/05/12 08:21:48;;;;;;;8.63;6.30;;;;;;;26.40;nan;95575.72;5009293;28;20223;-80
2022/05/12 08:24:15;;;;;;;8.80;6.03;;;;;;;26.67;nan;95576.84;5005442;28;20290;-80
2022/05/12 08:26:42;;;;;;;8.32;5.97;;;;;;;26.71;nan;95578.22;5008828;28;20219;-81
2022/05/12 08:29:12;;;;;;;6.65;6.03;;;;;;;26.23;nan;95578.13;5009104;28;20234;-81
2022/05/12 08:31:39;;;;;;;8.93;6.28;;;;;;;25.88;nan;95573.38;5006750;28;20300;-80
2022/05/12 08:34:06;;;;;;;7.07;5.97;;;;;;;26.03;nan;95577.25;5009197;28;20374;-80
2022/05/12 08:36:33;;;;;;;11.90;5.90;;;;;;;25.86;nan;95570.91;5011005;28;20207;-80
2022/05/12 08:39:01;;;;;;;5.38;4.88;;;;;;;26.20;nan;95574.00;5006776;28;20214;-80
2022/05/12 08:41:37;;;;;;;10.75;6.13;;;;;;;26.48;nan;95566.41;5010209;28;20203;-80
2022/05/12 08:44:08;;;;;;;8.82;5.82;;;;;;;26.51;nan;95559.09;5007678;28;20203;-78
2022/05/12 08:46:43;;;;;;;6.53;5.00;;;;;;;26.93;nan;95567.50;5009452;28;20235;-80
2022/05/12 08:49:20;;;;;;;3.92;3.70;;;;;;;26.38;nan;95562.00;5006895;28;22053;-80
2022/05/12 08:51:50;;;;;;;6.80;3.65;;;;;;;26.29;nan;95564.53;5007597;28;20257;-78
2022/05/12 08:54:23;;;;;;;3.97;3.67;;;;;;;26.15;nan;95564.94;5008185;28;20211;-78
2022/05/12 08:56:56;;;;;;;7.18;3.50;;;;;;;26.19;nan;95567.16;5008386;28;20301;-79
2022/05/12 08:59:23;;;;;;;5.45;3.55;;;;;;;25.87;nan;95563.91;5009730;28;20700;-79
2022/05/12 09:02:00;;;;;;;5.90;3.70;;;;;;;26.22;nan;95566.06;5008254;28;20208;-78
2022/05/12 09:04:54;;;;;;;4.40;3.40;;;;;;;26.58;nan;95567.22;5007430;28;20237;-79
2022/05/12 09:07:28;;;;;;;3.63;3.33;;;;;;;26.72;nan;95554.59;5008379;28;20236;-79
2022/05/12 09:10:08;;;;;;;4.00;3.70;;;;;;;26.62;nan;95560.78;5008093;28;20262;-81
2022/05/12 09:12:41;;;;;;;3.42;3.22;;;;;;;26.62;nan;95563.38;5010253;28;20282;-80
2022/05/12 09:15:12;;;;;;;3.95;3.65;;;;;;;26.80;nan;95561.72;5004392;28;20701;-79
2022/05/12 09:17:45;;;;;;;4.30;4.03;;;;;;;26.89;nan;95560.09;5007117;28;20263;-74
2022/05/12 09:20:13;;;;;;;4.05;3.65;;;;;;;27.08;nan;95550.47;5002378;28;20304;-74
2022/05/12 09:22:42;;;;;;;3.20;2.90;;;;;;;27.10;nan;95553.75;5004121;28;20285;-74
2022/05/12 09:25:27;;;;;;;8.63;4.72;;;;;;;26.81;nan;95552.94;5003252;28;20200;-73
2022/05/12 09:27:58;;;;;;;4.45;4.15;;;;;;;26.95;nan;95554.34;5003152;28;21981;-73
2022/05/12 09:30:32;;;;;;;8.13;4.68;;;;;;;26.89;nan;95558.28;5004750;28;20200;-73
2022/05/12 09:33:00;;;;;;;28.70;23.80;;;;;;;27.08;nan;95550.47;5005051;28;20231;-75
2022/05/12 09:35:27;;;;;;;16.38;11.93;;;;;;;27.00;nan;95563.38;5002631;28;20204;-72
2022/05/12 09:37:55;;;;;;;22.10;18.73;;;;;;;26.85;nan;95564.75;5003282;28;20678;-76
2022/05/12 09:40:34;;;;;;;62.80;40.00;;;;;;;26.99;nan;95555.69;5004077;28;20472;-74
2022/05/12 09:43:17;;;;;;;5.88;5.47;;;;;;;26.89;nan;95532.22;5004009;28;20648;-78
2022/05/12 09:45:45;;;;;;;6.65;6.07;;;;;;;26.78;nan;95555.81;5003901;28;20207;-74
2022/05/12 09:48:23;;;;;;;5.82;4.88;;;;;;;27.03;nan;95547.44;5004726;28;20239;-74
2022/05/12 09:50:52;;;;;;;7.75;5.25;;;;;;;27.24;nan;95555.09;5003422;28;20608;-74
2022/05/12 09:53:27;;;;;;;4.70;4.30;;;;;;;27.36;nan;95535.72;5003722;28;20657;-74
2022/05/12 09:56:05;;;;;;;8.48;5.20;;;;;;;27.29;nan;95541.63;5002982;28;20747;-74
2022/05/12 09:58:38;;;;;;;7.57;4.78;;;;;;;27.14;nan;95549.09;5003423;28;20326;-74
2022/05/12 10:01:13;;;;;;;5.80;5.32;;;;;;;27.22;nan;95541.34;5002614;28;20592;-73
2022/05/12 10:09:17;;;;;;;16.88;12.60;;;;;;;26.85;nan;95535.22;5002477;28;20274;-74
2022/05/12 10:11:51;;;;;;;8.93;6.65;;;;;;;26.74;nan;95520.53;5004294;28;20200;-75
2022/05/12 10:14:37;;;;;;;32.22;26.20;;;;;;;26.70;nan;95517.41;5014186;28;20252;-82
2022/05/12 10:17:10;;;;;;;6.35;5.18;;;;;;;26.60;nan;95523.59;5007710;28;20247;-79
2022/05/12 10:19:37;;;;;;;4.70;4.40;;;;;;;26.45;nan;95509.34;5015089;28;20265;-80
2022/05/12 10:22:14;;;;;;;4.82;4.43;;;;;;;26.66;nan;95502.19;5029808;28;20245;-80
2022/05/12 10:24:52;;;;;;;4.47;4.18;;;;;;;26.98;nan;95501.88;5020524;28;20203;-80
2022/05/12 10:27:30;;;;;;;5.20;4.72;;;;;;;27.22;nan;95496.22;5010326;28;20211;-81
2022/05/12 10:30:06;;;;;;;5.43;4.93;;;;;;;27.33;nan;95493.41;5007201;28;20200;-82
2022/05/12 10:32:55;;;;;;;3.70;3.50;;;;;;;27.23;nan;95493.44;5007928;28;20203;-81
2022/05/12 10:35:28;;;;;;;3.80;3.60;;;;;;;27.31;nan;95492.72;5022326;28;20207;-83
2022/05/12 10:38:05;;;;;;;3.70;3.40;;;;;;;27.37;nan;95497.38;5032966;28;20204;-81
2022/05/12 10:40:39;;;;;;;6.40;3.50;;;;;;;27.13;nan;95463.13;5034276;28;20248;-82
2022/05/12 10:43:20;;;;;;;3.47;3.17;;;;;;;27.14;nan;95493.47;5028448;28;20233;-81
2022/05/12 10:45:55;;;;;;;7.35;3.92;;;;;;;27.06;nan;95481.94;5011986;28;20196;-82
2022/05/12 10:48:34;;;;;;;3.75;3.45;;;;;;;27.03;nan;95471.78;5011445;28;20200;-83
2022/05/12 10:51:14;;;;;;;7.32;6.72;;;;;;;27.01;nan;95465.91;5030912;28;20673;-83
2022/05/12 10:53:51;;;;;;;4.00;3.70;;;;;;;27.15;nan;95466.41;5029010;28;20253;-79
2022/05/12 10:56:34;;;;;;;2.83;2.63;;;;;;;27.14;nan;95465.59;5010574;28;20216;-84
2022/05/12 10:59:20;;;;;;;2.83;2.63;;;;;;;27.20;nan;95466.81;5010740;28;20204;-80
2022/05/12 11:01:52;;;;;;;8.43;7.10;;;;;;;27.19;nan;95458.16;5011056;28;20590;-82
2022/05/12 11:04:25;;;;;;;8.48;6.25;;;;;;;27.25;nan;95454.97;5010830;28;20263;-81
2022/05/12 11:06:56;;;;;;;4.85;4.45;;;;;;;27.23;nan;95456.88;5011366;28;20283;-81
2022/05/12 11:09:28;;;;;;;3.75;3.45;;;;;;;27.10;nan;95459.84;5011189;28;20709;-81
2022/05/12 11:12:01;;;;;;;3.88;3.35;;;;;;;27.18;nan;95442.66;5011758;28;20207;-85
2022/05/12 11:14:35;;;;;;;3.08;2.97;;;;;;;27.25;nan;95456.75;5011504;28;20200;-79
2022/05/12 11:17:17;;;;;;;6.80;3.25;;;;;;;26.78;nan;95449.72;5010389;28;20232;-79
2022/05/12 11:19:49;;;;;;;4.30;4.00;;;;;;;26.95;nan;95443.00;5010902;28;20208;-80
2022/05/12 11:22:31;;;;;;;4.10;3.55;;;;;;;27.08;nan;95440.91;5010757;28;20203;-79
2022/05/12 11:25:03;;;;;;;3.72;3.50;;;;;;;27.12;nan;95432.78;5021155;28;20204;-79
2022/05/12 11:27:42;;;;;;;4.30;3.78;;;;;;;27.17;nan;95441.00;5029972;28;20226;-81
2022/05/12 11:30:32;;;;;;;15.95;13.98;;;;;;;26.99;nan;95426.09;5017600;28;20278;-78
2022/05/12 11:33:11;;;;;;;135.48;87.50;;;;;;;27.19;nan;95413.00;5010538;28;20227;-79
2022/05/12 11:35:43;;;;;;;11.13;9.13;;;;;;;27.46;nan;95418.22;5011620;28;20204;-79
2022/05/12 11:38:11;;;;;;;10.18;9.15;;;;;;;27.72;nan;95421.78;5013823;28;20498;-79
2022/05/12 11:40:55;;;;;;;11.48;10.43;;;;;;;27.69;nan;95408.22;5027222;28;20192;-82
2022/05/12 11:46:44;;;;;;;17.58;13.13;;;;;;;27.28;nan;95404.28;5013940;28;20265;-79
2022/05/12 11:49:31;;;;;;;7.03;4.75;;;;;;;27.18;nan;95398.31;5015779;28;20778;-82
2022/05/12 11:52:12;;;;;;;10.63;3.78;;;;;;;27.12;nan;95391.88;5033710;28;20616;-80
2022/05/12 11:54:42;;;;;;;5.65;4.30;;;;;;;27.10;nan;95397.22;5027115;28;20592;-82
2022/05/12 11:57:24;;;;;;;6.40;3.33;;;;;;;27.24;nan;95400.31;5013794;28;20561;-80
2022/05/12 11:59:53;;;;;;;6.03;3.28;;;;;;;27.43;nan;95381.97;5014057;28;20203;-80
2022/05/12 12:02:45;;;;;;;4.63;4.30;;;;;;;27.68;nan;95386.50;5013690;28;20208;-80
2022/05/12 12:05:36;;;;;;;3.65;3.35;;;;;;;27.72;nan;95392.22;5013639;28;20548;-80
2022/05/12 12:08:08;;;;;;;5.50;5.10;;;;;;;27.60;nan;95383.78;5013367;28;20204;-80
2022/05/12 12:10:38;;;;;;;9.48;8.57;;;;;;;27.68;nan;95376.06;5013587;28;20207;-81
2022/05/12 12:13:08;;;;;;;4.43;3.40;;;;;;;27.44;nan;95373.16;5013800;28;20250;-80
2022/05/12 12:16:04;;;;;;;5.03;4.63;;;;;;;27.68;nan;95370.00;5013695;28;20197;-82
2022/05/12 12:18:47;;;;;;;5.13;4.03;;;;;;;27.70;nan;95363.69;5013805;28;20232;-82
2022/05/12 12:21:48;;;;;;;3.30;3.10;;;;;;;27.58;nan;95366.63;5013462;28;20219;-82
2022/05/12 12:24:43;;;;;;;5.70;4.35;;;;;;;27.67;nan;95371.81;5013888;28;20302;-82